Time;durP1;ratioP1;P1;durP2;ratioP2;P2;SDS_P1;SDS_P2;PMS_P1;PMS_P2;Temp;Humidity;BMP_temperature;BMP_pressure;BME280_temperature;BME280_humidity;BME280_pressure;Samples;Min_cycle;Max_cycle;Signal;HPM_P1;HPM_P2
2024/03/08 05:01:24;;;;;;;6.28;5.75;;;0.00;99.90;;;;;;5449917;23;20324;-71
2024/03/08 05:03:53;;;;;;;7.78;4.35;;;0.00;99.90;;;;;;4918358;29;20206;-71
2024/03/08 05:06:20;;;;;;;8.30;6.30;;;0.00;99.90;;;;;;4921618;29;20230;-71
2024/03/08 05:08:47;;;;;;;10.90;5.93;;;0.00;99.90;;;;;;4924517;29;20204;-72
2024/03/08 05:11:15;;;;;;;9.43;6.93;;;0.00;99.90;;;;;;4931257;29;20230;-71
2024/03/08 05:13:41;;;;;;;11.90;5.78;;;-0.10;99.90;;;;;;4930560;29;20525;-71
2024/03/08 05:16:08;;;;;;;4.22;3.85;;;-0.10;99.90;;;;;;4926540;29;20218;-71
2024/03/08 05:18:36;;;;;;;7.82;6.97;;;-0.10;99.90;;;;;;4928395;29;20225;-71
2024/03/08 05:21:03;;;;;;;9.93;4.65;;;-0.10;99.90;;;;;;4928910;29;20239;-71
2024/03/08 05:23:30;;;;;;;10.15;7.40;;;-0.10;99.90;;;;;;4929621;29;20231;-72
2024/03/08 05:25:57;;;;;;;10.57;4.80;;;-0.10;99.90;;;;;;4929931;29;20213;-72
2024/03/08 05:28:24;;;;;;;6.63;6.03;;;-0.10;99.90;;;;;;4930255;29;20246;-71
2024/03/08 05:30:51;;;;;;;16.45;6.45;;;-0.10;99.90;;;;;;4929117;29;20230;-70
2024/03/08 05:33:19;;;;;;;6.75;4.75;;;-0.10;99.90;;;;;;4929710;29;20211;-69
2024/03/08 05:35:47;;;;;;;9.27;6.50;;;-0.10;99.90;;;;;;4930437;29;20230;-70
2024/03/08 05:38:14;;;;;;;7.18;6.15;;;-0.10;99.90;;;;;;4930721;29;20387;-68
2024/03/08 05:40:43;;;;;;;7.03;4.72;;;-0.10;99.90;;;;;;4930948;29;20235;-70
2024/03/08 05:43:09;;;;;;;7.07;4.65;;;-0.10;99.90;;;;;;4930008;29;20238;-71
2024/03/08 05:45:38;;;;;;;6.50;5.90;;;-0.10;99.90;;;;;;4925660;29;20207;-70
2024/03/08 05:48:06;;;;;;;13.30;5.70;;;-0.10;99.90;;;;;;4929513;29;20214;-70
2024/03/08 05:50:33;;;;;;;12.05;4.72;;;-0.10;99.90;;;;;;4928838;29;20230;-71
2024/03/08 05:53:01;;;;;;;10.95;8.45;;;-0.10;99.90;;;;;;4929664;29;20294;-70
2024/03/08 05:55:29;;;;;;;7.13;4.82;;;-0.10;99.90;;;;;;4930983;29;20241;-70
2024/03/08 05:57:56;;;;;;;9.10;5.85;;;-0.10;99.90;;;;;;4931535;29;20211;-71
2024/03/08 06:00:24;;;;;;;5.20;4.43;;;-0.10;99.90;;;;;;4930145;29;20208;-70
2024/03/08 06:02:51;;;;;;;9.85;5.32;;;-0.10;99.90;;;;;;4930352;29;20230;-71
2024/03/08 06:05:18;;;;;;;6.05;5.00;;;-0.10;99.90;;;;;;4929747;29;20220;-71
2024/03/08 06:07:45;;;;;;;11.07;5.78;;;-0.10;99.90;;;;;;4927213;29;20214;-68
2024/03/08 06:10:14;;;;;;;15.20;8.07;;;-0.10;99.90;;;;;;4929941;29;20211;-70
2024/03/08 06:12:41;;;;;;;7.25;5.63;;;-0.10;99.90;;;;;;4929286;29;20211;-68
2024/03/08 06:15:09;;;;;;;6.80;6.30;;;-0.10;99.90;;;;;;4929561;29;20241;-70
2024/03/08 06:17:36;;;;;;;5.45;4.72;;;-0.10;99.90;;;;;;4925682;29;20222;-71
2024/03/08 06:20:10;;;;;;;8.80;5.10;;;-0.10;99.90;;;;;;4927679;29;20207;-70
2024/03/08 06:22:37;;;;;;;7.75;5.63;;;0.00;99.90;;;;;;4923255;29;20254;-72
2024/03/08 06:25:04;;;;;;;8.15;5.07;;;0.00;99.90;;;;;;4926578;29;20634;-73
2024/03/08 06:27:33;;;;;;;6.78;5.55;;;0.00;99.90;;;;;;4925605;29;20248;-70
2024/03/08 06:30:00;;;;;;;7.07;5.75;;;0.00;99.90;;;;;;4925620;29;20215;-71
2024/03/08 06:32:27;;;;;;;7.13;6.25;;;0.00;99.90;;;;;;4924813;29;20222;-70
2024/03/08 06:34:54;;;;;;;7.32;3.60;;;0.10;99.90;;;;;;4925167;29;20214;-70
2024/03/08 06:37:21;;;;;;;8.02;3.90;;;0.10;99.90;;;;;;4926131;29;20238;-71
2024/03/08 06:39:48;;;;;;;5.28;4.85;;;0.10;99.90;;;;;;4923755;29;20238;-70
2024/03/08 06:42:15;;;;;;;8.10;5.35;;;0.10;99.90;;;;;;4925001;29;20228;-72
2024/03/08 06:44:48;;;;;;;8.68;5.25;;;0.10;99.90;;;;;;4922696;29;20717;-71
2024/03/08 06:47:16;;;;;;;7.18;4.63;;;0.20;99.90;;;;;;4923836;29;20222;-71
2024/03/08 06:49:43;;;;;;;10.70;5.20;;;0.20;99.90;;;;;;4924403;29;20202;-71
2024/03/08 06:52:09;;;;;;;7.90;5.25;;;0.30;99.90;;;;;;4924115;29;20238;-70
2024/03/08 06:54:36;;;;;;;10.07;7.63;;;0.30;99.90;;;;;;4923031;29;20301;-69
2024/03/08 06:57:04;;;;;;;16.67;7.95;;;0.40;99.90;;;;;;4921537;29;20210;-71
2024/03/08 06:59:31;;;;;;;8.00;6.57;;;0.40;99.90;;;;;;4919799;29;20218;-70
2024/03/08 07:02:00;;;;;;;8.57;5.95;;;0.50;99.90;;;;;;4919007;29;20242;-70
2024/03/08 07:04:29;;;;;;;13.70;8.30;;;0.50;99.90;;;;;;4920437;29;20278;-70
2024/03/08 07:06:57;;;;;;;9.02;5.03;;;0.50;99.90;;;;;;4919227;29;20214;-72
2024/03/08 07:09:24;;;;;;;15.32;5.90;;;0.60;99.90;;;;;;4917774;29;20220;-70
2024/03/08 07:11:54;;;;;;;6.57;5.93;;;0.60;99.90;;;;;;4922924;29;20246;-71
2024/03/08 07:14:22;;;;;;;13.55;7.32;;;0.70;99.90;;;;;;4923072;29;20212;-71
2024/03/08 07:16:48;;;;;;;13.60;7.63;;;0.70;99.90;;;;;;4923551;29;20218;-71
2024/03/08 07:19:17;;;;;;;8.68;7.38;;;0.80;99.90;;;;;;4923288;29;20617;-70
2024/03/08 07:21:44;;;;;;;12.90;7.88;;;0.80;99.90;;;;;;4922594;29;20602;-70
2024/03/08 07:24:27;;;;;;;15.00;8.13;;;0.90;99.90;;;;;;4920930;29;20600;-70
2024/03/08 07:26:55;;;;;;;12.57;6.25;;;0.90;99.90;;;;;;4919444;29;20273;-70
2024/03/08 07:29:22;;;;;;;12.82;7.30;;;1.00;99.90;;;;;;4920669;29;20304;-70
2024/03/08 07:31:56;;;;;;;12.60;6.30;;;1.00;99.90;;;;;;4921092;29;20266;-70
2024/03/08 07:34:24;;;;;;;10.80;5.50;;;1.10;99.90;;;;;;4918119;29;20312;-69
2024/03/08 07:36:51;;;;;;;7.55;6.55;;;1.20;99.90;;;;;;4919937;29;20519;-71
2024/03/08 07:39:18;;;;;;;15.18;7.13;;;1.20;99.90;;;;;;4920986;29;20407;-68
2024/03/08 07:41:45;;;;;;;11.02;5.93;;;1.30;99.90;;;;;;4921506;29;20229;-71
2024/03/08 07:44:14;;;;;;;6.70;5.38;;;1.30;99.90;;;;;;4920910;29;20712;-72
2024/03/08 07:46:41;;;;;;;16.02;8.80;;;1.40;99.90;;;;;;4921593;29;20223;-70
2024/03/08 07:49:10;;;;;;;17.50;8.98;;;1.40;99.90;;;;;;4921771;29;20240;-70
2024/03/08 07:51:38;;;;;;;11.60;8.23;;;1.60;99.90;;;;;;4919102;29;20268;-70
2024/03/08 07:54:07;;;;;;;14.68;7.18;;;1.60;99.90;;;;;;4920783;29;20209;-71
2024/03/08 07:56:34;;;;;;;10.82;5.50;;;1.70;99.90;;;;;;4919984;29;20245;-70
2024/03/08 07:59:00;;;;;;;9.90;7.03;;;1.80;99.90;;;;;;4921257;29;20209;-72
2024/03/08 08:01:27;;;;;;;11.45;6.45;;;1.90;99.90;;;;;;4918978;29;20238;-71
2024/03/08 08:03:54;;;;;;;22.58;10.52;;;2.00;99.90;;;;;;4918208;29;20336;-71
2024/03/08 08:06:21;;;;;;;18.15;9.77;;;2.10;99.90;;;;;;4920000;29;20210;-71
2024/03/08 08:08:49;;;;;;;13.10;9.90;;;2.10;99.90;;;;;;4913896;29;20326;-71
2024/03/08 08:11:16;;;;;;;8.38;6.53;;;2.30;99.90;;;;;;4917491;29;20245;-72
2024/03/08 08:13:43;;;;;;;9.88;8.18;;;2.30;99.90;;;;;;4924578;29;20284;-69
2024/03/08 08:16:12;;;;;;;14.70;8.70;;;2.40;99.90;;;;;;4926011;29;20206;-72
2024/03/08 08:18:39;;;;;;;14.32;8.05;;;2.50;99.90;;;;;;4923966;29;20213;-70
2024/03/08 08:21:06;;;;;;;9.65;5.05;;;2.50;99.90;;;;;;4926812;29;20320;-71
2024/03/08 08:23:33;;;;;;;11.68;8.15;;;2.60;99.90;;;;;;4921962;29;20293;-72
2024/03/08 08:26:03;;;;;;;13.35;7.28;;;2.70;99.90;;;;;;4921263;29;20680;-71
2024/03/08 08:28:31;;;;;;;15.55;6.65;;;2.80;99.90;;;;;;4923235;29;20273;-70
2024/03/08 08:30:59;;;;;;;20.15;8.50;;;2.90;99.90;;;;;;4921281;29;20261;-70
2024/03/08 08:33:26;;;;;;;14.02;9.07;;;2.90;99.90;;;;;;4925656;29;20215;-71
2024/03/08 08:35:54;;;;;;;9.23;6.95;;;3.00;99.90;;;;;;4926989;29;20222;-72
2024/03/08 08:38:21;;;;;;;11.75;6.03;;;3.10;99.90;;;;;;4922097;29;20206;-71
2024/03/08 08:40:47;;;;;;;19.25;7.85;;;3.20;99.90;;;;;;4925460;29;20229;-70
2024/03/08 08:43:16;;;;;;;15.63;8.35;;;3.30;99.90;;;;;;4923800;29;20231;-72
2024/03/08 08:45:43;;;;;;;3.60;3.17;;;3.30;99.90;;;;;;4918323;29;20298;-72
2024/03/08 08:48:10;;;;;;;13.70;8.07;;;3.40;99.90;;;;;;4925911;29;20588;-71
2024/03/08 08:50:37;;;;;;;10.35;8.95;;;3.50;99.90;;;;;;4923622;29;20237;-71
2024/03/08 08:53:06;;;;;;;7.25;6.60;;;3.60;99.90;;;;;;4925513;29;20234;-72
2024/03/08 08:55:35;;;;;;;24.08;8.70;;;3.70;99.90;;;;;;4924677;29;20271;-72
2024/03/08 08:58:03;;;;;;;13.82;8.25;;;3.80;99.90;;;;;;4928724;29;20279;-70
2024/03/08 09:00:31;;;;;;;9.80;5.53;;;3.90;99.90;;;;;;4924852;29;20206;-72
2024/03/08 09:03:02;;;;;;;17.85;10.45;;;4.00;99.90;;;;;;4925035;29;20231;-69
2024/03/08 09:05:28;;;;;;;10.38;7.82;;;4.10;99.90;;;;;;4924888;29;20210;-70
2024/03/08 09:07:55;;;;;;;15.35;7.50;;;4.10;99.90;;;;;;4923764;29;20218;-71
2024/03/08 09:10:23;;;;;;;7.35;4.70;;;4.10;99.90;;;;;;4926930;29;20728;-70
2024/03/08 09:12:50;;;;;;;10.48;6.40;;;4.20;99.90;;;;;;4927294;29;20225;-71
2024/03/08 09:15:17;;;;;;;10.60;6.55;;;4.40;99.90;;;;;;4926276;29;20226;-71
2024/03/08 09:17:45;;;;;;;9.65;6.28;;;4.40;99.90;;;;;;4929649;29;20211;-71
2024/03/08 09:20:14;;;;;;;11.90;5.88;;;4.50;99.90;;;;;;4928671;29;20245;-70
2024/03/08 09:22:41;;;;;;;7.28;6.55;;;4.60;99.90;;;;;;4929434;29;20248;-71
2024/03/08 09:25:09;;;;;;;17.15;7.60;;;4.60;99.90;;;;;;4926203;29;20461;-70
2024/03/08 09:27:36;;;;;;;20.08;7.03;;;4.70;99.90;;;;;;4922446;29;20266;-72
2024/03/08 09:30:04;;;;;;;10.18;6.95;;;4.70;99.90;;;;;;4920774;29;20278;-70
2024/03/08 09:32:31;;;;;;;13.35;8.25;;;4.80;99.90;;;;;;4926785;29;20226;-71
2024/03/08 09:35:00;;;;;;;9.68;6.72;;;4.80;99.90;;;;;;4929588;29;20216;-71
2024/03/08 09:37:27;;;;;;;13.45;7.30;;;4.90;99.90;;;;;;4929313;29;20255;-71
2024/03/08 09:39:54;;;;;;;14.10;9.57;;;4.90;99.90;;;;;;4930633;29;20270;-72
2024/03/08 09:42:21;;;;;;;13.75;7.78;;;5.00;99.90;;;;;;4924656;29;20247;-70
2024/03/08 09:44:48;;;;;;;12.75;9.13;;;5.10;99.90;;;;;;4925794;29;21409;-71
2024/03/08 09:47:16;;;;;;;13.25;9.05;;;5.10;99.90;;;;;;4925601;29;20211;-70
2024/03/08 09:49:43;;;;;;;9.68;6.28;;;5.10;99.90;;;;;;4927120;29;20542;-72
2024/03/08 09:52:12;;;;;;;16.20;9.93;;;5.20;99.90;;;;;;4926223;29;20265;-71
2024/03/08 09:54:39;;;;;;;8.88;7.85;;;5.30;99.90;;;;;;4928658;29;20207;-71
2024/03/08 09:57:08;;;;;;;13.02;8.13;;;5.40;99.90;;;;;;4915169;29;20210;-71
2024/03/08 09:59:48;;;;;;;9.90;5.80;;;5.40;99.90;;;;;;4912448;29;20216;-70
2024/03/08 10:02:18;;;;;;;12.98;6.82;;;5.40;99.90;;;;;;4912922;29;20248;-70
2024/03/08 10:04:47;;;;;;;6.60;4.53;;;5.40;99.90;;;;;;4914340;29;20234;-70
2024/03/08 10:07:15;;;;;;;7.30;5.32;;;5.50;99.90;;;;;;4913395;29;20295;-71
2024/03/08 10:09:47;;;;;;;7.05;5.75;;;5.50;99.90;;;;;;4908710;29;20208;-71
2024/03/08 10:12:14;;;;;;;16.52;8.07;;;5.70;99.90;;;;;;4911422;29;20232;-71
2024/03/08 10:14:42;;;;;;;12.15;7.95;;;5.70;99.90;;;;;;4913955;29;20204;-71
2024/03/08 10:17:09;;;;;;;15.55;7.57;;;5.80;99.90;;;;;;4912779;29;20576;-70
2024/03/08 10:19:36;;;;;;;15.38;7.32;;;5.80;99.90;;;;;;4911653;29;20210;-70
2024/03/08 10:22:04;;;;;;;15.73;8.50;;;5.80;99.90;;;;;;4912539;29;20227;-70
2024/03/08 10:24:34;;;;;;;9.82;5.07;;;5.90;99.90;;;;;;4911626;29;20226;-70
2024/03/08 10:27:04;;;;;;;12.50;8.70;;;5.90;99.90;;;;;;4913932;29;20215;-70
2024/03/08 10:29:31;;;;;;;9.43;5.80;;;6.00;99.90;;;;;;4912325;29;20208;-71
2024/03/08 10:31:58;;;;;;;12.20;8.27;;;6.00;99.90;;;;;;4906413;29;20226;-72
2024/03/08 10:34:26;;;;;;;10.63;6.25;;;6.00;99.90;;;;;;4913697;29;20630;-72
2024/03/08 10:36:53;;;;;;;12.43;9.15;;;6.20;99.90;;;;;;4911965;29;20557;-71
2024/03/08 10:39:23;;;;;;;6.72;5.20;;;6.30;99.90;;;;;;4909611;29;20537;-72
2024/03/08 10:41:57;;;;;;;11.55;8.20;;;6.40;99.90;;;;;;4912966;29;20229;-70
2024/03/08 10:44:41;;;;;;;13.07;7.38;;;6.50;99.90;;;;;;4910850;29;20322;-73
2024/03/08 10:47:18;;;;;;;11.07;9.30;;;6.50;99.90;;;;;;4910427;29;20227;-71
2024/03/08 10:49:52;;;;;;;8.20;6.20;;;6.60;99.90;;;;;;4914953;29;20509;-73
2024/03/08 10:52:20;;;;;;;6.20;5.45;;;6.60;99.90;;;;;;4913749;29;20232;-72
2024/03/08 10:54:49;;;;;;;9.23;5.25;;;6.70;99.90;;;;;;4917667;29;20201;-71
2024/03/08 10:57:20;;;;;;;11.85;9.23;;;6.70;99.90;;;;;;4916171;29;20316;-71
2024/03/08 10:59:49;;;;;;;16.85;8.48;;;6.80;99.90;;;;;;4914698;29;20214;-71
2024/03/08 11:02:18;;;;;;;11.27;7.63;;;6.80;99.90;;;;;;4912967;29;20763;-72
2024/03/08 11:04:48;;;;;;;7.13;6.40;;;7.00;99.90;;;;;;4912358;29;20328;-72
2024/03/08 11:07:18;;;;;;;6.63;6.07;;;7.10;99.90;;;;;;4911466;29;20223;-72
2024/03/08 11:09:45;;;;;;;12.48;6.20;;;7.10;99.90;;;;;;4910276;29;20210;-71
2024/03/08 11:12:29;;;;;;;13.15;8.07;;;7.10;99.90;;;;;;4907401;29;20276;-70
2024/03/08 11:14:57;;;;;;;4.25;3.92;;;7.20;99.90;;;;;;4911510;29;20297;-70
2024/03/08 11:17:41;;;;;;;10.48;7.50;;;7.30;99.90;;;;;;4905849;29;20257;-71
2024/03/08 11:20:15;;;;;;;3.65;1.90;;;7.30;99.90;;;;;;4907952;29;20213;-71
2024/03/08 11:22:45;;;;;;;8.65;5.00;;;7.40;99.90;;;;;;4912135;29;20206;-71
2024/03/08 11:25:32;;;;;;;12.65;6.28;;;7.40;99.90;;;;;;4910382;29;20234;-71
2024/03/08 11:28:11;;;;;;;14.75;8.50;;;7.50;99.90;;;;;;4908625;29;20217;-71
2024/03/08 11:30:39;;;;;;;31.27;6.72;;;7.50;99.90;;;;;;4909323;29;20311;-74
2024/03/08 11:33:09;;;;;;;8.43;6.55;;;7.60;99.90;;;;;;4910577;29;20287;-71
2024/03/08 11:35:37;;;;;;;10.00;7.28;;;7.60;99.90;;;;;;4906399;29;20217;-71
2024/03/08 11:38:04;;;;;;;13.95;6.63;;;7.70;99.90;;;;;;4902697;29;20215;-71
2024/03/08 11:40:33;;;;;;;2.70;2.55;;;7.70;99.90;;;;;;4913419;29;20252;-71
2024/03/08 11:43:01;;;;;;;8.18;7.38;;;7.70;99.90;;;;;;4908582;29;20565;-71
2024/03/08 11:45:31;;;;;;;10.27;6.72;;;7.70;99.90;;;;;;4912729;29;20605;-71
2024/03/08 11:47:59;;;;;;;10.70;6.20;;;7.80;99.90;;;;;;4910599;29;20216;-71
2024/03/08 11:50:26;;;;;;;9.63;6.78;;;7.80;99.90;;;;;;4914040;29;20293;-71
2024/03/08 11:52:52;;;;;;;7.65;6.63;;;7.90;99.90;;;;;;4915564;29;20218;-71
2024/03/08 11:55:19;;;;;;;10.50;6.18;;;7.80;99.90;;;;;;4916544;29;20232;-70
2024/03/08 11:57:47;;;;;;;11.65;7.13;;;7.80;99.90;;;;;;4915447;29;20210;-73
2024/03/08 12:00:22;;;;;;;10.20;8.63;;;7.80;99.90;;;;;;4916141;29;20235;-71
2024/03/08 12:03:03;;;;;;;12.30;7.80;;;7.90;99.90;;;;;;4915343;29;20222;-72
2024/03/08 12:05:30;;;;;;;9.82;6.47;;;7.90;99.90;;;;;;4913822;29;20266;-71
2024/03/08 12:07:58;;;;;;;13.23;7.40;;;7.90;99.90;;;;;;4914466;29;20225;-71
2024/03/08 12:10:25;;;;;;;4.88;3.90;;;7.90;99.90;;;;;;4916079;29;20211;-72
2024/03/08 12:12:53;;;;;;;11.90;5.38;;;7.90;99.90;;;;;;4912887;29;20384;-72
2024/03/08 12:15:22;;;;;;;11.23;7.95;;;7.90;99.90;;;;;;4914241;29;20217;-72
2024/03/08 12:17:50;;;;;;;8.18;6.18;;;8.10;99.90;;;;;;4915098;29;20606;-72
2024/03/08 12:20:21;;;;;;;9.75;6.38;;;8.10;99.90;;;;;;4914000;29;20211;-72
2024/03/08 12:22:48;;;;;;;13.30;8.20;;;8.10;99.90;;;;;;4915545;29;20237;-72
2024/03/08 12:25:16;;;;;;;7.30;5.07;;;8.10;99.90;;;;;;4915980;29;20230;-71
2024/03/08 12:27:44;;;;;;;9.80;6.80;;;8.20;99.90;;;;;;4914935;29;20233;-73
2024/03/08 12:30:18;;;;;;;7.38;5.53;;;8.30;99.90;;;;;;4915839;29;20227;-72
2024/03/08 12:32:49;;;;;;;12.68;6.25;;;8.30;99.90;;;;;;4912188;29;20206;-72
2024/03/08 12:35:16;;;;;;;2.63;2.28;;;8.40;99.90;;;;;;4910661;29;20550;-72
2024/03/08 12:37:44;;;;;;;9.55;5.97;;;8.40;99.90;;;;;;4915193;29;20287;-73
2024/03/08 12:40:16;;;;;;;10.48;8.00;;;8.30;99.90;;;;;;4913070;29;20214;-72
2024/03/08 12:42:43;;;;;;;10.02;7.05;;;8.30;99.90;;;;;;4912708;29;20290;-73
2024/03/08 12:45:10;;;;;;;11.82;6.40;;;8.30;99.90;;;;;;4911726;29;20265;-72
2024/03/08 12:47:37;;;;;;;9.18;6.03;;;8.40;99.90;;;;;;4911405;29;20217;-72
2024/03/08 12:50:04;;;;;;;6.18;4.78;;;8.40;99.90;;;;;;4914268;29;20218;-72
2024/03/08 12:52:31;;;;;;;7.07;5.55;;;8.50;99.90;;;;;;4913812;29;20232;-72
2024/03/08 12:55:02;;;;;;;11.65;4.88;;;8.50;99.90;;;;;;4915486;29;20410;-73
2024/03/08 12:57:29;;;;;;;9.60;5.32;;;8.50;99.90;;;;;;4912711;29;20890;-72
2024/03/08 12:59:56;;;;;;;11.65;7.65;;;8.50;99.90;;;;;;4913588;29;20218;-72
2024/03/08 13:02:23;;;;;;;5.22;4.32;;;8.50;99.90;;;;;;4911419;29;20234;-72
2024/03/08 13:04:55;;;;;;;14.02;7.22;;;8.50;99.90;;;;;;4914088;29;20599;-72
2024/03/08 13:07:23;;;;;;;5.55;4.35;;;8.60;99.90;;;;;;4914198;29;20206;-73
2024/03/08 13:09:50;;;;;;;6.85;5.63;;;8.60;99.90;;;;;;4912069;29;20238;-73
2024/03/08 13:12:20;;;;;;;8.48;6.57;;;8.50;99.90;;;;;;4912947;29;20243;-72
2024/03/08 13:14:46;;;;;;;9.18;5.47;;;8.60;99.90;;;;;;4914208;29;20230;-72
2024/03/08 13:17:13;;;;;;;11.93;8.20;;;8.60;99.90;;;;;;4915491;29;20207;-74
2024/03/08 13:19:40;;;;;;;9.00;6.82;;;8.60;99.90;;;;;;4915842;29;20214;-73
2024/03/08 13:22:06;;;;;;;9.10;4.75;;;8.60;99.90;;;;;;4913943;29;20748;-73
2024/03/08 13:24:33;;;;;;;7.43;4.85;;;8.70;99.90;;;;;;4911303;29;20254;-72
2024/03/08 13:27:01;;;;;;;13.07;5.85;;;8.80;99.90;;;;;;4913582;29;20269;-72
2024/03/08 13:29:29;;;;;;;6.57;5.78;;;8.80;99.90;;;;;;4914511;29;20230;-72
2024/03/08 13:32:00;;;;;;;8.40;4.93;;;8.80;99.90;;;;;;4914056;29;20256;-72
2024/03/08 13:34:29;;;;;;;9.18;5.60;;;8.80;99.90;;;;;;4915209;29;20216;-72
2024/03/08 13:37:00;;;;;;;6.13;4.60;;;8.80;99.90;;;;;;4914596;29;20218;-72
2024/03/08 13:39:26;;;;;;;9.43;4.93;;;8.80;99.90;;;;;;4915294;29;20211;-73
2024/03/08 13:41:53;;;;;;;7.75;5.25;;;8.80;99.90;;;;;;4913511;29;20234;-72
2024/03/08 13:44:20;;;;;;;7.18;4.68;;;8.80;99.90;;;;;;4914139;29;20226;-72
2024/03/08 13:46:50;;;;;;;6.85;5.72;;;8.90;99.90;;;;;;4915114;29;20548;-72
2024/03/08 13:49:17;;;;;;;7.45;5.90;;;9.00;99.90;;;;;;4914972;29;20230;-72
2024/03/08 13:51:45;;;;;;;3.63;3.30;;;9.00;99.90;;;;;;4914322;29;20231;-72
2024/03/08 13:54:11;;;;;;;8.75;5.18;;;9.00;99.90;;;;;;4914044;29;20641;-72
2024/03/08 13:56:38;;;;;;;3.90;3.38;;;9.00;99.90;;;;;;4911966;29;20218;-72
2024/03/08 13:59:05;;;;;;;10.30;5.53;;;9.10;99.90;;;;;;4914171;29;20832;-72
2024/03/08 14:01:32;;;;;;;7.80;4.65;;;8.90;99.90;;;;;;4914364;29;20249;-73
2024/03/08 14:04:00;;;;;;;7.18;4.32;;;9.00;99.90;;;;;;4913674;29;20217;-73
2024/03/08 14:06:26;;;;;;;4.22;3.92;;;9.10;99.90;;;;;;4914145;29;20291;-72
2024/03/08 14:08:56;;;;;;;7.55;3.50;;;9.10;99.90;;;;;;4911353;29;20221;-72
2024/03/08 14:11:23;;;;;;;8.45;5.78;;;9.00;99.90;;;;;;4911460;29;20278;-72
2024/03/08 14:13:50;;;;;;;8.88;5.97;;;9.00;99.90;;;;;;4913485;29;20207;-72
2024/03/08 14:16:17;;;;;;;14.57;4.68;;;9.00;99.90;;;;;;4911834;29;20210;-72
2024/03/08 14:18:44;;;;;;;8.55;4.47;;;9.00;99.90;;;;;;4914322;29;20216;-73
2024/03/08 14:21:12;;;;;;;9.85;6.30;;;9.10;99.90;;;;;;4911371;29;20237;-73
2024/03/08 14:23:41;;;;;;;6.50;5.22;;;9.20;99.90;;;;;;4911420;29;20220;-70
2024/03/08 14:26:09;;;;;;;11.95;5.47;;;9.20;99.90;;;;;;4913837;29;20233;-71
2024/03/08 14:28:37;;;;;;;7.47;4.95;;;9.20;99.90;;;;;;4911730;29;20813;-71
2024/03/08 14:31:08;;;;;;;12.35;6.13;;;9.10;99.90;;;;;;4910255;29;20322;-72
2024/03/08 14:33:37;;;;;;;2.03;1.52;;;9.10;99.90;;;;;;4908310;29;20207;-71
2024/03/08 14:36:05;;;;;;;9.50;4.97;;;9.10;99.90;;;;;;4913186;29;20218;-71
2024/03/08 14:38:34;;;;;;;6.38;4.30;;;9.10;99.90;;;;;;4913333;29;20258;-70
2024/03/08 14:41:01;;;;;;;6.25;5.07;;;9.00;99.90;;;;;;4912334;29;20230;-70
2024/03/08 14:43:28;;;;;;;6.85;6.15;;;8.90;99.90;;;;;;4897634;29;20245;-70
2024/03/08 14:45:55;;;;;;;9.40;4.72;;;8.90;99.90;;;;;;4901524;29;20317;-70
2024/03/08 14:48:22;;;;;;;9.05;4.97;;;9.00;99.90;;;;;;4908709;29;20219;-70
2024/03/08 14:50:50;;;;;;;9.73;5.90;;;8.90;99.90;;;;;;4907878;29;20256;-70
2024/03/08 14:53:18;;;;;;;5.05;4.70;;;9.00;99.90;;;;;;4909104;29;20610;-71
2024/03/08 14:55:47;;;;;;;5.63;3.42;;;9.00;99.90;;;;;;4912035;29;20218;-71
2024/03/08 14:58:14;;;;;;;6.68;3.17;;;9.00;99.90;;;;;;4911204;29;20581;-71
2024/03/08 15:00:41;;;;;;;3.28;2.97;;;9.00;99.90;;;;;;4909583;29;20366;-71
2024/03/08 15:03:12;;;;;;;10.18;6.10;;;9.00;99.90;;;;;;4908664;29;20682;-71
2024/03/08 15:05:47;;;;;;;6.32;4.60;;;9.00;99.90;;;;;;4910278;29;20254;-71
2024/03/08 15:08:19;;;;;;;7.88;3.85;;;9.00;99.90;;;;;;4910698;29;20223;-71
2024/03/08 15:10:53;;;;;;;8.32;5.97;;;9.00;99.90;;;;;;4910630;29;20234;-72
2024/03/08 15:13:22;;;;;;;7.22;4.63;;;9.00;99.90;;;;;;4907743;29;20210;-72
2024/03/08 15:15:54;;;;;;;9.40;5.97;;;8.90;99.90;;;;;;4903792;29;20726;-71
2024/03/08 15:18:25;;;;;;;14.50;5.63;;;8.90;99.90;;;;;;4905513;29;20646;-71
2024/03/08 15:20:52;;;;;;;9.57;6.95;;;8.90;99.90;;;;;;4906960;29;20546;-70
2024/03/08 15:23:20;;;;;;;6.13;5.35;;;8.90;99.90;;;;;;4912769;29;20593;-70
2024/03/08 15:25:49;;;;;;;9.85;5.63;;;8.80;99.90;;;;;;4913411;29;20337;-70
2024/03/08 15:28:18;;;;;;;7.18;5.05;;;8.80;99.90;;;;;;4914844;29;20366;-70
2024/03/08 15:30:46;;;;;;;14.48;7.03;;;8.70;99.90;;;;;;4912709;29;20227;-71
2024/03/08 15:33:15;;;;;;;10.40;6.97;;;8.80;99.90;;;;;;4914324;29;20214;-70
2024/03/08 15:35:47;;;;;;;12.13;5.90;;;8.70;99.90;;;;;;4911550;29;20218;-71
2024/03/08 15:38:15;;;;;;;5.07;3.55;;;8.70;99.90;;;;;;4915870;29;20251;-71
2024/03/08 15:40:41;;;;;;;13.65;6.93;;;8.70;99.90;;;;;;4912958;29;20650;-70
2024/03/08 15:43:09;;;;;;;6.35;4.47;;;8.60;99.90;;;;;;4914825;29;20202;-72
2024/03/08 15:45:36;;;;;;;8.13;2.90;;;8.60;99.90;;;;;;4917353;29;20234;-72
2024/03/08 15:48:05;;;;;;;12.00;7.10;;;8.60;99.90;;;;;;4916915;29;20211;-72
2024/03/08 15:50:31;;;;;;;5.85;3.30;;;8.60;99.90;;;;;;4916678;29;20218;-71
2024/03/08 15:52:59;;;;;;;11.45;7.28;;;8.60;99.90;;;;;;4916206;29;20600;-72
2024/03/08 15:55:27;;;;;;;10.60;8.18;;;8.50;99.90;;;;;;4912228;29;20210;-72
2024/03/08 15:57:55;;;;;;;7.97;4.47;;;8.50;99.90;;;;;;4916411;29;20238;-71
2024/03/08 16:00:33;;;;;;;13.98;6.93;;;8.50;99.90;;;;;;4916482;29;20206;-72
2024/03/08 16:03:02;;;;;;;12.38;5.70;;;8.50;99.90;;;;;;4915443;29;20701;-72
2024/03/08 16:05:29;;;;;;;9.25;6.20;;;8.40;99.90;;;;;;4915888;29;20241;-71
2024/03/08 16:07:56;;;;;;;12.38;7.05;;;8.40;99.90;;;;;;4914378;29;20629;-72
2024/03/08 16:10:25;;;;;;;10.23;7.47;;;8.40;99.90;;;;;;4915563;29;20207;-71
2024/03/08 16:12:52;;;;;;;12.95;6.43;;;8.30;99.90;;;;;;4911946;29;20637;-71
2024/03/08 16:15:20;;;;;;;15.13;7.80;;;8.30;99.90;;;;;;4913312;29;20221;-72
2024/03/08 16:17:48;;;;;;;5.65;5.07;;;8.30;99.90;;;;;;4915574;29;20213;-72
2024/03/08 16:20:15;;;;;;;10.00;5.90;;;8.30;99.90;;;;;;4915871;29;20213;-71
2024/03/08 16:22:44;;;;;;;9.25;6.75;;;8.30;99.90;;;;;;4913248;29;20216;-72
2024/03/08 16:25:13;;;;;;;10.07;5.22;;;8.20;99.90;;;;;;4914244;29;20764;-69
2024/03/08 16:27:40;;;;;;;8.68;7.72;;;8.10;99.90;;;;;;4916870;29;20210;-70
2024/03/08 16:30:09;;;;;;;6.95;5.45;;;8.10;99.90;;;;;;4912397;29;20214;-71
2024/03/08 16:32:37;;;;;;;9.77;6.00;;;8.00;99.90;;;;;;4914043;29;20226;-71
2024/03/08 16:35:10;;;;;;;9.55;6.60;;;8.00;99.90;;;;;;4915032;29;20207;-71
2024/03/08 16:37:37;;;;;;;6.95;4.95;;;7.90;99.90;;;;;;4907028;29;20221;-71
2024/03/08 16:40:05;;;;;;;7.10;6.13;;;7.90;99.90;;;;;;4910981;29;20725;-70
2024/03/08 16:42:31;;;;;;;5.88;4.75;;;7.80;99.90;;;;;;4912469;29;20233;-71
2024/03/08 16:44:58;;;;;;;11.43;6.70;;;7.90;99.90;;;;;;4915678;29;20222;-71
2024/03/08 16:47:25;;;;;;;9.95;6.38;;;7.80;99.90;;;;;;4915741;29;20216;-69
2024/03/08 16:49:52;;;;;;;9.93;6.72;;;7.80;99.90;;;;;;4916264;29;20212;-70
2024/03/08 16:52:22;;;;;;;11.15;6.50;;;7.70;99.90;;;;;;4914137;29;20236;-70
2024/03/08 16:54:48;;;;;;;9.30;5.38;;;7.60;99.90;;;;;;4909176;29;20262;-70
2024/03/08 16:57:16;;;;;;;9.07;6.25;;;7.50;99.90;;;;;;4910510;29;20216;-70
2024/03/08 16:59:43;;;;;;;8.30;6.30;;;7.50;99.90;;;;;;4910082;29;20235;-70
2024/03/08 17:02:10;;;;;;;11.27;6.95;;;7.50;99.90;;;;;;4910858;29;20335;-71
2024/03/08 17:04:37;;;;;;;8.77;7.30;;;7.50;99.90;;;;;;4913748;29;20212;-71
2024/03/08 17:07:05;;;;;;;13.07;4.90;;;7.40;99.90;;;;;;4913201;29;20235;-71
2024/03/08 17:09:33;;;;;;;6.95;6.35;;;7.40;99.90;;;;;;4914170;29;20315;-71
2024/03/08 17:12:04;;;;;;;8.48;5.22;;;7.30;99.90;;;;;;4911287;29;20234;-71
2024/03/08 17:14:31;;;;;;;7.28;5.82;;;7.30;99.90;;;;;;4909675;29;20223;-71
2024/03/08 17:16:58;;;;;;;9.80;6.30;;;7.20;99.90;;;;;;4911310;29;20524;-71
2024/03/08 17:19:26;;;;;;;6.32;5.20;;;7.20;99.90;;;;;;4910977;29;20234;-72
2024/03/08 17:21:54;;;;;;;7.95;5.15;;;7.10;99.90;;;;;;4912200;29;20673;-72
2024/03/08 17:24:23;;;;;;;13.30;5.82;;;7.00;99.90;;;;;;4910767;29;20213;-72
2024/03/08 17:26:51;;;;;;;10.05;6.85;;;7.00;99.90;;;;;;4912139;29;20230;-72
2024/03/08 17:29:19;;;;;;;8.65;5.47;;;6.90;99.90;;;;;;4912382;29;20215;-71
2024/03/08 17:31:45;;;;;;;11.93;8.00;;;6.90;99.90;;;;;;4910989;29;20236;-71
2024/03/08 17:34:13;;;;;;;13.85;5.72;;;6.90;99.90;;;;;;4912948;29;20679;-71
2024/03/08 17:36:40;;;;;;;8.10;6.20;;;6.80;99.90;;;;;;4913117;29;20210;-71
2024/03/08 17:39:17;;;;;;;17.00;9.38;;;6.70;99.90;;;;;;4913097;29;20218;-72
2024/03/08 17:41:48;;;;;;;6.13;5.38;;;6.70;99.90;;;;;;4913110;29;20241;-71
2024/03/08 17:44:16;;;;;;;7.22;6.22;;;6.60;99.90;;;;;;4911029;29;20211;-72
2024/03/08 17:46:44;;;;;;;19.15;8.77;;;6.50;99.90;;;;;;4909224;29;20245;-72
2024/03/08 17:49:12;;;;;;;13.35;7.70;;;6.50;99.90;;;;;;4911951;29;20215;-73
2024/03/08 17:51:39;;;;;;;6.43;5.88;;;6.40;99.90;;;;;;4907040;29;20303;-72
2024/03/08 17:54:10;;;;;;;6.90;5.28;;;6.40;99.90;;;;;;4911107;29;20266;-72
2024/03/08 17:56:37;;;;;;;17.80;7.68;;;6.30;99.90;;;;;;4913164;29;20241;-72